Time;durP1;ratioP1;P1;durP2;ratioP2;P2;SDS_P1;SDS_P2;PMS_P1;PMS_P2;Temp;Humidity;BMP_temperature;BMP_pressure;BME280_temperature;BME280_humidity;BME280_pressure;Samples;Min_cycle;Max_cycle;Signal;HPM_P1;HPM_P2
2020/12/24 00:00:57;;;;;;;;;;;19.60;48.70;;;;;;491637;240;943;-67
2020/12/24 00:02:58;;;;;;;;;;;19.60;48.80;;;;;;491611;240;1238;-67
2020/12/24 00:04:59;;;;;;;;;;;19.60;48.90;;;;;;491642;240;933;-67
2020/12/24 00:07:01;;;;;;;;;;;19.60;49.00;;;;;;491563;240;1263;-67
2020/12/24 00:09:02;;;;;;;;;;;19.60;48.80;;;;;;491604;240;1165;-67
2020/12/24 00:11:03;;;;;;;;;;;19.60;48.80;;;;;;491652;240;961;-67
2020/12/24 00:13:05;;;;;;;;;;;19.60;48.80;;;;;;491589;240;2192;-67
2020/12/24 00:15:06;;;;;;;;;;;19.70;48.70;;;;;;491646;240;1038;-67
2020/12/24 00:17:07;;;;;;;;;;;19.70;48.80;;;;;;491619;240;988;-67
2020/12/24 00:19:08;;;;;;;;;;;19.60;48.80;;;;;;491663;240;931;-67
2020/12/24 00:21:10;;;;;;;;;;;19.60;49.00;;;;;;491680;240;952;-67
2020/12/24 00:23:11;;;;;;;;;;;19.60;49.00;;;;;;491667;240;1016;-67
2020/12/24 00:25:12;;;;;;;;;;;19.60;49.00;;;;;;491588;240;973;-67
2020/12/24 00:27:14;;;;;;;;;;;19.60;49.00;;;;;;491707;240;1158;-67
2020/12/24 00:29:15;;;;;;;;;;;19.60;49.10;;;;;;491645;240;970;-67
2020/12/24 00:31:16;;;;;;;;;;;19.60;49.00;;;;;;491694;240;1055;-68
2020/12/24 00:33:17;;;;;;;;;;;19.60;49.00;;;;;;491582;240;2204;-67
2020/12/24 00:35:19;;;;;;;;;;;19.70;49.00;;;;;;491658;240;944;-67
2020/12/24 00:37:20;;;;;;;;;;;19.60;49.10;;;;;;491577;240;1085;-68
2020/12/24 00:39:21;;;;;;;;;;;19.60;49.20;;;;;;491637;240;1125;-68
2020/12/24 00:41:22;;;;;;;;;;;19.60;49.10;;;;;;491582;240;1003;-68
2020/12/24 00:43:24;;;;;;;;;;;19.60;49.10;;;;;;491747;240;1131;-67
2020/12/24 00:45:25;;;;;;;;;;;19.70;49.10;;;;;;491680;240;991;-67
2020/12/24 00:47:26;;;;;;;;;;;19.60;49.10;;;;;;491684;240;979;-67
2020/12/24 00:49:28;;;;;;;;;;;19.60;49.10;;;;;;491669;240;939;-67
2020/12/24 00:51:29;;;;;;;;;;;19.70;49.10;;;;;;491680;240;1197;-67
2020/12/24 00:53:30;;;;;;;;;;;19.70;49.10;;;;;;491673;240;2184;-68
2020/12/24 00:55:31;;;;;;;;;;;19.70;49.00;;;;;;491567;240;1060;-68
2020/12/24 00:57:33;;;;;;;;;;;19.70;49.00;;;;;;491632;240;1138;-67
2020/12/24 00:59:34;;;;;;;;;;;19.70;49.10;;;;;;491687;240;1216;-67
2020/12/24 01:01:35;;;;;;;;;;;19.70;49.10;;;;;;491636;240;1139;-67
2020/12/24 01:03:36;;;;;;;;;;;19.60;49.20;;;;;;491636;240;1057;-67
2020/12/24 01:05:38;;;;;;;;;;;19.60;49.20;;;;;;491655;240;971;-67
2020/12/24 01:07:39;;;;;;;;;;;19.70;49.20;;;;;;491614;240;1107;-67
2020/12/24 01:09:40;;;;;;;;;;;19.70;49.10;;;;;;491651;240;959;-67
2020/12/24 01:11:42;;;;;;;;;;;19.60;49.20;;;;;;491604;240;1184;-67
2020/12/24 01:13:43;;;;;;;;;;;19.70;49.30;;;;;;491692;240;2152;-68
2020/12/24 01:15:44;;;;;;;;;;;19.70;49.30;;;;;;491575;240;978;-67
2020/12/24 01:17:45;;;;;;;;;;;19.60;49.40;;;;;;491681;240;954;-68
2020/12/24 01:19:47;;;;;;;;;;;19.70;49.30;;;;;;491618;240;994;-68
2020/12/24 01:21:48;;;;;;;;;;;19.70;49.20;;;;;;491660;240;967;-68
2020/12/24 01:23:49;;;;;;;;;;;19.70;49.10;;;;;;491596;240;1102;-67
2020/12/24 01:25:50;;;;;;;;;;;19.70;49.30;;;;;;491645;240;941;-68
2020/12/24 01:27:52;;;;;;;;;;;19.70;49.30;;;;;;491645;240;1134;-67
2020/12/24 01:29:53;;;;;;;;;;;19.70;49.30;;;;;;491633;240;927;-68
2020/12/24 01:31:54;;;;;;;;;;;19.70;49.20;;;;;;491557;240;1120;-67
2020/12/24 01:33:56;;;;;;;;;;;19.70;49.30;;;;;;491628;240;2125;-68
2020/12/24 01:35:58;;;;;;;;;;;19.70;49.30;;;;;;491633;240;1031;-68
2020/12/24 01:37:59;;;;;;;;;;;19.60;49.30;;;;;;491649;240;1102;-67
2020/12/24 01:40:00;;;;;;;;;;;19.70;49.20;;;;;;491637;240;942;-67
2020/12/24 01:42:01;;;;;;;;;;;19.70;49.30;;;;;;491773;240;1055;-68
2020/12/24 01:44:03;;;;;;;;;;;19.70;49.30;;;;;;491715;240;1226;-68
2020/12/24 01:46:04;;;;;;;;;;;19.60;49.30;;;;;;491671;240;986;-68
2020/12/24 01:48:05;;;;;;;;;;;19.70;49.20;;;;;;491593;240;1070;-67
2020/12/24 01:50:07;;;;;;;;;;;19.70;49.10;;;;;;491589;240;1095;-67
2020/12/24 01:52:08;;;;;;;;;;;19.90;49.00;;;;;;491529;240;1079;-67
2020/12/24 01:54:09;;;;;;;;;;;19.90;48.90;;;;;;491688;240;2129;-67
2020/12/24 01:56:10;;;;;;;;;;;19.80;48.90;;;;;;491706;240;1015;-67
2020/12/24 01:58:12;;;;;;;;;;;19.80;49.00;;;;;;491647;240;1156;-67
2020/12/24 02:00:13;;;;;;;;;;;19.80;48.90;;;;;;491776;240;946;-67
2020/12/24 02:02:14;;;;;;;;;;;19.80;49.00;;;;;;491644;240;1147;-68
2020/12/24 02:04:16;;;;;;;;;;;19.80;48.90;;;;;;491716;240;1080;-67
2020/12/24 02:06:17;;;;;;;;;;;19.90;48.80;;;;;;491656;240;1041;-68
2020/12/24 02:08:19;;;;;;;;;;;19.80;48.70;;;;;;491601;240;1195;-67
2020/12/24 02:10:19;;;;;;;;;;;19.90;48.80;;;;;;491655;241;1451;-67
2020/12/24 02:12:21;;;;;;;;;;;19.90;48.80;;;;;;491641;240;1177;-67
2020/12/24 02:14:22;;;;;;;;;;;19.90;48.80;;;;;;491735;240;2191;-68
2020/12/24 02:16:23;;;;;;;;;;;19.90;48.70;;;;;;491596;240;1080;-68
2020/12/24 02:18:25;;;;;;;;;;;19.90;48.70;;;;;;491615;240;1087;-67
2020/12/24 02:20:27;;;;;;;;;;;19.80;48.80;;;;;;491592;240;951;-67
2020/12/24 02:22:27;;;;;;;;;;;19.90;48.70;;;;;;491495;242;1387;-68
2020/12/24 02:24:29;;;;;;;;;;;19.90;48.70;;;;;;491632;240;1073;-68
2020/12/24 02:26:30;;;;;;;;;;;19.90;48.70;;;;;;491619;240;1008;-68
2020/12/24 02:28:31;;;;;;;;;;;19.90;48.50;;;;;;491569;240;1291;-67
2020/12/24 02:30:32;;;;;;;;;;;19.80;48.60;;;;;;491645;240;1049;-68
2020/12/24 02:32:34;;;;;;;;;;;19.80;48.50;;;;;;491696;240;960;-67
2020/12/24 02:34:35;;;;;;;;;;;19.90;48.50;;;;;;491641;240;2140;-67
2020/12/24 02:36:37;;;;;;;;;;;19.90;48.50;;;;;;491604;240;1153;-67
2020/12/24 02:38:38;;;;;;;;;;;19.80;48.50;;;;;;491658;240;1103;-67
2020/12/24 02:40:39;;;;;;;;;;;19.80;48.60;;;;;;491639;240;955;-67
2020/12/24 02:42:40;;;;;;;;;;;19.80;48.60;;;;;;491627;240;1257;-67
2020/12/24 02:44:42;;;;;;;;;;;19.80;48.50;;;;;;491652;240;1184;-67
2020/12/24 02:46:43;;;;;;;;;;;19.80;48.50;;;;;;491715;240;1061;-67
2020/12/24 02:48:44;;;;;;;;;;;19.90;48.40;;;;;;491671;240;1057;-67
2020/12/24 02:50:45;;;;;;;;;;;19.90;48.30;;;;;;491601;240;979;-67
2020/12/24 02:52:47;;;;;;;;;;;19.90;48.40;;;;;;491654;240;1209;-67
2020/12/24 02:54:48;;;;;;;;;;;19.80;48.50;;;;;;491570;240;2136;-67
2020/12/24 02:56:49;;;;;;;;;;;19.90;48.40;;;;;;491510;240;1075;-67
2020/12/24 02:58:51;;;;;;;;;;;19.80;48.50;;;;;;491687;240;1122;-67
2020/12/24 03:00:52;;;;;;;;;;;19.80;48.40;;;;;;491566;240;1094;-68
2020/12/24 03:02:53;;;;;;;;;;;19.70;48.60;;;;;;491599;240;985;-67
2020/12/24 03:04:54;;;;;;;;;;;19.80;48.40;;;;;;491645;240;952;-67
2020/12/24 03:06:56;;;;;;;;;;;19.80;48.40;;;;;;491637;240;942;-68
2020/12/24 03:08:57;;;;;;;;;;;19.80;48.50;;;;;;491682;240;995;-68
2020/12/24 03:10:58;;;;;;;;;;;19.80;48.40;;;;;;491675;240;1034;-67
2020/12/24 03:13:00;;;;;;;;;;;19.90;48.20;;;;;;491637;240;1074;-67
2020/12/24 03:15:01;;;;;;;;;;;20.00;48.00;;;;;;491634;240;2168;-68
2020/12/24 03:17:03;;;;;;;;;;;20.00;47.80;;;;;;491675;240;970;-67
2020/12/24 03:19:04;;;;;;;;;;;19.90;48.00;;;;;;491698;240;968;-67
2020/12/24 03:21:05;;;;;;;;;;;19.90;48.10;;;;;;491689;240;1049;-67
2020/12/24 03:23:06;;;;;;;;;;;19.90;47.90;;;;;;491670;240;1016;-67
2020/12/24 03:25:08;;;;;;;;;;;20.00;47.90;;;;;;491680;240;1066;-68
2020/12/24 03:27:09;;;;;;;;;;;19.90;47.80;;;;;;491649;240;921;-67
2020/12/24 03:29:10;;;;;;;;;;;19.90;47.90;;;;;;491667;240;1155;-67
2020/12/24 03:31:11;;;;;;;;;;;19.90;47.80;;;;;;491568;240;1024;-68
2020/12/24 03:33:13;;;;;;;;;;;19.90;47.80;;;;;;491692;240;1211;-67
2020/12/24 03:35:14;;;;;;;;;;;20.00;47.80;;;;;;491560;240;2267;-68
2020/12/24 03:37:15;;;;;;;;;;;19.90;47.80;;;;;;491633;240;1077;-67
2020/12/24 03:39:16;;;;;;;;;;;20.00;47.80;;;;;;491707;240;936;-68
2020/12/24 03:41:18;;;;;;;;;;;19.90;47.70;;;;;;491620;240;940;-67
2020/12/24 03:43:19;;;;;;;;;;;19.90;47.90;;;;;;491630;240;1023;-68
2020/12/24 03:45:21;;;;;;;;;;;19.80;48.00;;;;;;491654;240;1200;-68
2020/12/24 03:47:22;;;;;;;;;;;19.80;48.10;;;;;;491528;240;955;-67
2020/12/24 03:49:23;;;;;;;;;;;19.80;48.00;;;;;;491689;240;950;-67
2020/12/24 03:51:25;;;;;;;;;;;19.90;48.00;;;;;;491665;240;950;-67
2020/12/24 03:53:26;;;;;;;;;;;19.80;48.00;;;;;;491655;240;1059;-68
2020/12/24 03:55:28;;;;;;;;;;;19.80;48.10;;;;;;491606;240;2199;-67
2020/12/24 03:57:28;;;;;;;;;;;19.80;48.00;;;;;;491625;240;1376;-67
2020/12/24 03:59:30;;;;;;;;;;;19.80;48.10;;;;;;491656;240;1171;-67
2020/12/24 04:01:31;;;;;;;;;;;19.70;48.20;;;;;;491619;240;1013;-67
2020/12/24 04:03:32;;;;;;;;;;;19.70;48.40;;;;;;491641;240;1110;-67
2020/12/24 04:05:33;;;;;;;;;;;19.70;48.40;;;;;;491609;240;958;-67
2020/12/24 04:07:35;;;;;;;;;;;19.80;48.20;;;;;;491562;240;985;-68
2020/12/24 04:09:36;;;;;;;;;;;19.70;48.20;;;;;;491585;240;1279;-67
2020/12/24 04:11:37;;;;;;;;;;;19.70;48.40;;;;;;491579;240;1055;-67
2020/12/24 04:13:39;;;;;;;;;;;19.60;48.50;;;;;;491646;240;1042;-67
2020/12/24 04:15:40;;;;;;;;;;;19.70;48.40;;;;;;491703;240;2136;-67
2020/12/24 04:17:41;;;;;;;;;;;19.70;48.40;;;;;;491646;240;1124;-67
2020/12/24 04:19:42;;;;;;;;;;;19.70;48.40;;;;;;491566;240;1192;-68
2020/12/24 04:21:44;;;;;;;;;;;19.70;48.30;;;;;;491584;240;1062;-67
2020/12/24 04:23:45;;;;;;;;;;;19.80;48.20;;;;;;491589;240;989;-67
2020/12/24 04:25:46;;;;;;;;;;;19.70;48.10;;;;;;491577;240;1066;-67
2020/12/24 04:27:47;;;;;;;;;;;19.70;48.20;;;;;;491660;240;1111;-67
2020/12/24 04:29:49;;;;;;;;;;;19.60;48.20;;;;;;491630;240;1330;-67
2020/12/24 04:31:50;;;;;;;;;;;19.60;48.30;;;;;;491545;240;1063;-67
2020/12/24 04:33:51;;;;;;;;;;;19.60;48.50;;;;;;491606;240;1044;-68
2020/12/24 04:35:53;;;;;;;;;;;19.60;48.20;;;;;;491687;240;2132;-67
2020/12/24 04:37:54;;;;;;;;;;;19.60;48.30;;;;;;491641;240;1031;-67
2020/12/24 04:39:55;;;;;;;;;;;19.70;48.20;;;;;;491592;240;1009;-67
2020/12/24 04:41:56;;;;;;;;;;;19.60;48.20;;;;;;491443;240;1227;-67
2020/12/24 04:43:58;;;;;;;;;;;19.60;48.30;;;;;;491602;240;1198;-67
2020/12/24 04:45:59;;;;;;;;;;;19.50;48.30;;;;;;491587;240;1140;-67
2020/12/24 04:48:00;;;;;;;;;;;19.50;48.20;;;;;;491609;240;1093;-67
2020/12/24 04:50:01;;;;;;;;;;;19.60;48.20;;;;;;491632;240;983;-67
2020/12/24 04:52:03;;;;;;;;;;;19.60;48.00;;;;;;491577;240;1118;-67
2020/12/24 04:54:04;;;;;;;;;;;19.60;48.00;;;;;;491617;240;976;-68
2020/12/24 04:56:05;;;;;;;;;;;19.60;47.80;;;;;;491573;240;2196;-67
2020/12/24 04:58:07;;;;;;;;;;;19.50;47.80;;;;;;491604;240;1067;-67
2020/12/24 05:00:08;;;;;;;;;;;19.50;47.90;;;;;;491638;240;1128;-67
2020/12/24 05:02:09;;;;;;;;;;;19.50;48.00;;;;;;491562;240;1262;-68
2020/12/24 05:04:10;;;;;;;;;;;19.50;47.70;;;;;;491651;240;932;-67
2020/12/24 05:06:12;;;;;;;;;;;19.50;47.70;;;;;;491604;240;927;-68
2020/12/24 05:08:13;;;;;;;;;;;19.50;47.80;;;;;;491679;240;1176;-67
2020/12/24 05:10:14;;;;;;;;;;;19.40;47.70;;;;;;491545;240;987;-68
2020/12/24 05:12:16;;;;;;;;;;;19.40;47.70;;;;;;491550;240;1041;-67
2020/12/24 05:14:17;;;;;;;;;;;19.40;47.70;;;;;;491646;240;952;-68
2020/12/24 05:16:18;;;;;;;;;;;19.50;47.50;;;;;;491681;240;2200;-69
2020/12/24 05:18:22;;;;;;;;;;;19.40;47.40;;;;;;491685;240;1012;-69
2020/12/24 05:20:21;;;;;;;;;;;19.50;47.30;;;;;;491521;242;1542;-69
2020/12/24 05:22:23;;;;;;;;;;;19.50;47.10;;;;;;491594;240;1155;-69
2020/12/24 05:24:23;;;;;;;;;;;19.50;47.00;;;;;;491542;240;1446;-69
2020/12/24 05:26:24;;;;;;;;;;;19.50;47.00;;;;;;491626;240;1147;-69
2020/12/24 05:28:26;;;;;;;;;;;19.50;47.00;;;;;;491571;240;1196;-69
2020/12/24 05:30:27;;;;;;;;;;;19.60;46.80;;;;;;491555;240;1322;-69
2020/12/24 05:32:28;;;;;;;;;;;19.60;46.60;;;;;;491572;240;1198;-69
2020/12/24 05:34:29;;;;;;;;;;;19.60;46.50;;;;;;491609;240;2578;-69
2020/12/24 05:36:31;;;;;;;;;;;19.60;46.50;;;;;;491774;240;1042;-69
2020/12/24 05:38:32;;;;;;;;;;;19.70;46.30;;;;;;491648;240;1117;-69
2020/12/24 05:40:33;;;;;;;;;;;19.60;46.40;;;;;;491641;240;948;-69
2020/12/24 05:42:35;;;;;;;;;;;19.60;46.30;;;;;;491592;240;1012;-69
2020/12/24 05:44:36;;;;;;;;;;;19.70;46.10;;;;;;491671;240;1227;-69
2020/12/24 05:46:37;;;;;;;;;;;19.70;46.00;;;;;;491641;240;1269;-69
2020/12/24 05:48:39;;;;;;;;;;;19.70;46.00;;;;;;491592;240;1040;-69
2020/12/24 05:50:40;;;;;;;;;;;19.70;46.00;;;;;;491488;240;1172;-69
2020/12/24 05:52:41;;;;;;;;;;;19.60;46.00;;;;;;491605;240;1039;-69
2020/12/24 05:54:42;;;;;;;;;;;19.60;46.20;;;;;;491645;240;2141;-69
2020/12/24 05:56:44;;;;;;;;;;;19.60;46.10;;;;;;491571;240;1032;-69
2020/12/24 05:58:45;;;;;;;;;;;19.60;46.00;;;;;;491648;240;1024;-69
2020/12/24 06:00:47;;;;;;;;;;;19.60;46.00;;;;;;491592;240;1138;-69
2020/12/24 06:02:48;;;;;;;;;;;19.60;46.10;;;;;;491581;240;1216;-69
2020/12/24 06:04:49;;;;;;;;;;;19.60;45.90;;;;;;491575;240;1013;-69
2020/12/24 06:06:50;;;;;;;;;;;19.60;45.80;;;;;;491646;240;1050;-69
2020/12/24 06:08:52;;;;;;;;;;;19.60;45.70;;;;;;491746;240;1040;-69
2020/12/24 06:10:53;;;;;;;;;;;19.60;45.60;;;;;;491609;240;1024;-69
2020/12/24 06:12:54;;;;;;;;;;;19.60;45.70;;;;;;491670;240;1220;-69
2020/12/24 06:14:56;;;;;;;;;;;19.60;45.70;;;;;;491576;240;2192;-69
2020/12/24 06:16:57;;;;;;;;;;;19.60;45.60;;;;;;491598;240;1348;-68
2020/12/24 06:18:58;;;;;;;;;;;19.70;45.60;;;;;;491552;240;1048;-69
2020/12/24 06:21:00;;;;;;;;;;;19.60;45.60;;;;;;491541;240;1064;-69
2020/12/24 06:23:01;;;;;;;;;;;19.60;45.60;;;;;;491576;240;1168;-69
2020/12/24 06:25:02;;;;;;;;;;;19.50;45.50;;;;;;491656;240;1090;-69
2020/12/24 06:27:04;;;;;;;;;;;19.50;45.70;;;;;;491538;240;1167;-69
2020/12/24 06:29:05;;;;;;;;;;;19.40;45.70;;;;;;491649;240;1028;-69
2020/12/24 06:31:06;;;;;;;;;;;19.40;45.60;;;;;;491683;240;1172;-69
2020/12/24 06:33:08;;;;;;;;;;;19.50;45.50;;;;;;491611;240;1768;-69
2020/12/24 06:35:09;;;;;;;;;;;19.40;45.50;;;;;;491614;240;2136;-68
2020/12/24 06:37:10;;;;;;;;;;;19.40;45.70;;;;;;491625;240;950;-69
2020/12/24 06:39:11;;;;;;;;;;;19.30;45.60;;;;;;491624;240;986;-69
2020/12/24 06:41:13;;;;;;;;;;;19.40;45.50;;;;;;491580;240;1064;-69
2020/12/24 06:43:14;;;;;;;;;;;19.40;45.40;;;;;;491534;240;946;-69
2020/12/24 06:45:15;;;;;;;;;;;19.30;45.40;;;;;;491523;240;983;-69
2020/12/24 06:47:17;;;;;;;;;;;19.30;45.40;;;;;;491581;240;1126;-69
2020/12/24 06:49:18;;;;;;;;;;;19.30;45.30;;;;;;491620;240;931;-69
2020/12/24 06:51:19;;;;;;;;;;;19.40;45.20;;;;;;491566;240;1110;-69
2020/12/24 06:53:20;;;;;;;;;;;19.40;45.00;;;;;;491664;240;1025;-69
2020/12/24 06:55:22;;;;;;;;;;;19.40;44.80;;;;;;491601;240;2191;-69
2020/12/24 06:57:23;;;;;;;;;;;19.40;44.90;;;;;;491673;240;960;-69
2020/12/24 06:59:24;;;;;;;;;;;19.40;44.70;;;;;;491493;240;1000;-69
2020/12/24 07:01:26;;;;;;;;;;;19.40;44.50;;;;;;491543;238;1313;-69
2020/12/24 07:03:27;;;;;;;;;;;19.40;44.30;;;;;;491583;240;1274;-69
2020/12/24 07:05:28;;;;;;;;;;;19.40;44.40;;;;;;491603;240;1053;-69
2020/12/24 07:07:30;;;;;;;;;;;19.40;44.30;;;;;;491528;240;1047;-69
2020/12/24 07:09:31;;;;;;;;;;;19.30;44.30;;;;;;491427;240;1118;-68
2020/12/24 07:11:32;;;;;;;;;;;19.30;44.20;;;;;;491497;240;1105;-69
2020/12/24 07:13:34;;;;;;;;;;;19.30;44.20;;;;;;491548;240;1208;-69
2020/12/24 07:15:35;;;;;;;;;;;19.40;44.10;;;;;;491626;240;2120;-69
2020/12/24 07:17:36;;;;;;;;;;;19.30;44.00;;;;;;491671;240;1212;-69
2020/12/24 07:19:37;;;;;;;;;;;19.30;43.80;;;;;;491555;240;1096;-69
2020/12/24 07:21:39;;;;;;;;;;;19.30;43.80;;;;;;491518;240;1087;-69
2020/12/24 07:23:40;;;;;;;;;;;19.40;43.70;;;;;;491606;240;1125;-69
2020/12/24 07:25:41;;;;;;;;;;;19.40;43.50;;;;;;491437;240;1063;-69
2020/12/24 07:27:43;;;;;;;;;;;19.40;43.50;;;;;;491565;240;1204;-69
2020/12/24 07:29:44;;;;;;;;;;;19.40;43.40;;;;;;491603;240;1066;-69
2020/12/24 07:31:45;;;;;;;;;;;19.40;43.20;;;;;;491517;240;1232;-69
2020/12/24 07:33:47;;;;;;;;;;;19.40;43.30;;;;;;491581;240;1110;-69
2020/12/24 07:35:48;;;;;;;;;;;19.40;43.10;;;;;;491607;240;2192;-69
2020/12/24 07:37:49;;;;;;;;;;;19.50;43.00;;;;;;491614;240;1536;-69
2020/12/24 07:39:51;;;;;;;;;;;19.70;42.40;;;;;;491625;240;1191;-69
2020/12/24 07:41:52;;;;;;;;;;;20.00;41.90;;;;;;491497;240;1059;-69
2020/12/24 07:43:53;;;;;;;;;;;20.20;41.40;;;;;;491438;240;1031;-69
2020/12/24 07:45:55;;;;;;;;;;;20.30;41.10;;;;;;491567;240;1047;-69
2020/12/24 07:47:56;;;;;;;;;;;20.50;40.80;;;;;;491569;240;1268;-69
2020/12/24 07:49:57;;;;;;;;;;;20.70;40.50;;;;;;491589;240;1146;-69
2020/12/24 07:51:58;;;;;;;;;;;20.70;40.30;;;;;;491597;240;1209;-69
2020/12/24 07:54:00;;;;;;;;;;;20.80;40.00;;;;;;491509;240;1033;-69
2020/12/24 07:56:01;;;;;;;;;;;20.90;39.90;;;;;;491582;240;2140;-69
2020/12/24 07:58:02;;;;;;;;;;;20.90;39.80;;;;;;491416;240;1070;-69
2020/12/24 08:00:03;;;;;;;;;;;20.90;39.60;;;;;;491548;240;1021;-69
2020/12/24 08:02:05;;;;;;;;;;;21.00;39.50;;;;;;491553;240;1164;-69
2020/12/24 08:04:06;;;;;;;;;;;21.00;39.50;;;;;;491597;240;1105;-69
2020/12/24 08:06:07;;;;;;;;;;;21.00;39.40;;;;;;491540;240;1116;-69
2020/12/24 08:08:08;;;;;;;;;;;21.00;39.30;;;;;;491603;240;1095;-69
2020/12/24 08:10:10;;;;;;;;;;;21.00;39.20;;;;;;491533;240;1198;-69
2020/12/24 08:12:11;;;;;;;;;;;21.00;39.20;;;;;;491406;240;1066;-69
2020/12/24 08:14:12;;;;;;;;;;;21.00;39.00;;;;;;491459;240;1042;-69
2020/12/24 08:16:14;;;;;;;;;;;21.00;39.10;;;;;;491392;240;2143;-69
2020/12/24 08:18:15;;;;;;;;;;;21.00;39.00;;;;;;491536;240;1141;-69
2020/12/24 08:20:16;;;;;;;;;;;21.10;38.80;;;;;;491577;240;1041;-69
2020/12/24 08:22:17;;;;;;;;;;;21.10;38.60;;;;;;491515;240;1094;-69
2020/12/24 08:24:19;;;;;;;;;;;21.10;38.80;;;;;;491585;240;1073;-69
2020/12/24 08:26:20;;;;;;;;;;;21.10;38.80;;;;;;491526;240;1008;-69
2020/12/24 08:28:21;;;;;;;;;;;21.00;38.70;;;;;;491562;240;1041;-69
2020/12/24 08:30:23;;;;;;;;;;;21.10;38.60;;;;;;491522;240;1110;-69
2020/12/24 08:32:24;;;;;;;;;;;21.10;38.50;;;;;;491545;240;1167;-69
2020/12/24 08:34:25;;;;;;;;;;;21.10;38.50;;;;;;491643;240;1066;-69
2020/12/24 08:36:26;;;;;;;;;;;21.10;38.40;;;;;;491555;240;2133;-69
2020/12/24 08:38:28;;;;;;;;;;;21.10;38.30;;;;;;491365;240;1033;-69
2020/12/24 08:40:29;;;;;;;;;;;21.20;38.30;;;;;;491554;240;992;-69
2020/12/24 08:42:30;;;;;;;;;;;21.10;38.10;;;;;;491513;240;1133;-69
2020/12/24 08:44:31;;;;;;;;;;;21.10;38.10;;;;;;491610;240;1038;-69
2020/12/24 08:46:33;;;;;;;;;;;21.20;38.10;;;;;;491520;240;1006;-69
2020/12/24 08:48:34;;;;;;;;;;;21.20;38.10;;;;;;491575;240;1133;-69
2020/12/24 08:50:35;;;;;;;;;;;21.20;37.90;;;;;;491505;240;959;-69
2020/12/24 08:52:37;;;;;;;;;;;21.20;37.90;;;;;;491544;240;1049;-69
2020/12/24 08:54:39;;;;;;;;;;;21.30;37.80;;;;;;491580;240;1004;-69
2020/12/24 08:56:40;;;;;;;;;;;21.30;37.80;;;;;;491570;240;2187;-69
2020/12/24 08:58:41;;;;;;;;;;;21.30;37.70;;;;;;491470;240;1052;-69
2020/12/24 09:00:43;;;;;;;;;;;21.30;37.60;;;;;;491441;240;1068;-69
2020/12/24 09:02:45;;;;;;;;;;;21.30;37.50;;;;;;491483;240;1170;-69
2020/12/24 09:04:45;;;;;;;;;;;21.30;37.40;;;;;;491617;241;1386;-69
2020/12/24 09:06:46;;;;;;;;;;;21.40;37.40;;;;;;491470;240;1036;-69
2020/12/24 09:08:48;;;;;;;;;;;21.30;37.30;;;;;;491580;240;1047;-69
2020/12/24 09:10:49;;;;;;;;;;;21.30;37.30;;;;;;491579;240;954;-69
2020/12/24 09:12:50;;;;;;;;;;;21.40;37.30;;;;;;491471;240;1378;-69
2020/12/24 09:14:52;;;;;;;;;;;21.30;37.10;;;;;;491567;240;1188;-69
2020/12/24 09:16:53;;;;;;;;;;;21.40;37.00;;;;;;491543;240;2144;-69
2020/12/24 09:18:54;;;;;;;;;;;21.40;37.10;;;;;;491591;240;1188;-69
2020/12/24 09:20:55;;;;;;;;;;;21.40;37.00;;;;;;491501;240;1096;-69
2020/12/24 09:22:57;;;;;;;;;;;21.40;36.80;;;;;;491629;240;964;-69
2020/12/24 09:24:58;;;;;;;;;;;21.40;36.80;;;;;;491617;240;1008;-69
2020/12/24 09:26:59;;;;;;;;;;;21.40;36.80;;;;;;491475;240;1038;-69
2020/12/24 09:29:00;;;;;;;;;;;21.30;36.80;;;;;;491551;240;1053;-69
2020/12/24 09:31:02;;;;;;;;;;;21.30;36.80;;;;;;491572;240;1055;-69
2020/12/24 09:33:03;;;;;;;;;;;21.30;36.80;;;;;;491550;240;1024;-69
2020/12/24 09:35:04;;;;;;;;;;;21.40;36.80;;;;;;491617;240;1075;-69
2020/12/24 09:37:06;;;;;;;;;;;21.40;36.70;;;;;;491632;240;2191;-69
2020/12/24 09:39:07;;;;;;;;;;;21.40;36.70;;;;;;491502;240;1062;-69
2020/12/24 09:41:08;;;;;;;;;;;21.40;36.70;;;;;;491589;240;956;-69
2020/12/24 09:43:09;;;;;;;;;;;21.40;36.70;;;;;;491505;240;1016;-69
2020/12/24 09:45:11;;;;;;;;;;;21.40;36.60;;;;;;491507;240;1165;-69
2020/12/24 09:47:12;;;;;;;;;;;21.40;36.60;;;;;;491534;240;1092;-69
2020/12/24 09:49:13;;;;;;;;;;;21.40;36.50;;;;;;491531;240;1168;-69
2020/12/24 09:51:15;;;;;;;;;;;21.40;36.50;;;;;;491593;240;1081;-69
2020/12/24 09:53:16;;;;;;;;;;;21.40;36.40;;;;;;491564;240;984;-69
2020/12/24 09:55:17;;;;;;;;;;;21.50;36.40;;;;;;491584;240;953;-69
2020/12/24 09:57:19;;;;;;;;;;;21.50;36.40;;;;;;491484;240;2136;-69
2020/12/24 09:59:20;;;;;;;;;;;21.50;36.30;;;;;;491490;240;1075;-69
2020/12/24 10:01:21;;;;;;;;;;;21.50;36.30;;;;;;491361;240;1305;-69
2020/12/24 10:03:22;;;;;;;;;;;21.50;36.40;;;;;;491527;240;1151;-69
2020/12/24 10:05:24;;;;;;;;;;;21.50;36.30;;;;;;491416;240;1016;-69
2020/12/24 10:07:25;;;;;;;;;;;21.50;36.20;;;;;;491504;240;1070;-69
2020/12/24 10:09:26;;;;;;;;;;;21.60;36.20;;;;;;491505;240;1010;-69
2020/12/24 10:11:27;;;;;;;;;;;21.50;36.10;;;;;;491292;240;978;-69
2020/12/24 10:13:29;;;;;;;;;;;21.60;36.30;;;;;;491548;240;1155;-69
2020/12/24 10:15:30;;;;;;;;;;;21.60;36.10;;;;;;491402;240;1588;-69
2020/12/24 10:17:31;;;;;;;;;;;21.60;36.00;;;;;;491402;240;2141;-69
2020/12/24 10:19:33;;;;;;;;;;;21.60;36.00;;;;;;491449;240;1141;-69
2020/12/24 10:21:34;;;;;;;;;;;21.70;35.80;;;;;;491465;240;1104;-69
2020/12/24 10:23:35;;;;;;;;;;;21.70;35.80;;;;;;491533;240;1087;-69
2020/12/24 10:25:39;;;;;;;;;;;21.80;35.80;;;;;;491497;240;954;-69
2020/12/24 10:27:38;;;;;;;;;;;21.80;35.70;;;;;;491435;241;1491;-69
2020/12/24 10:29:40;;;;;;;;;;;21.90;35.60;;;;;;491384;240;981;-68
2020/12/24 10:31:41;;;;;;;;;;;21.90;35.50;;;;;;491501;240;1038;-69
2020/12/24 10:33:42;;;;;;;;;;;21.90;35.50;;;;;;491427;240;1297;-69
2020/12/24 10:35:44;;;;;;;;;;;21.90;35.50;;;;;;491447;240;1040;-69
2020/12/24 10:37:45;;;;;;;;;;;22.00;35.40;;;;;;491503;240;2175;-69
2020/12/24 10:39:46;;;;;;;;;;;22.00;35.40;;;;;;491535;240;996;-69
2020/12/24 10:41:47;;;;;;;;;;;22.10;35.30;;;;;;491476;240;1067;-69
2020/12/24 10:43:49;;;;;;;;;;;22.00;35.30;;;;;;491509;240;1052;-69
2020/12/24 10:45:50;;;;;;;;;;;22.00;35.30;;;;;;491598;240;1326;-69
2020/12/24 10:47:51;;;;;;;;;;;22.00;35.40;;;;;;491521;240;961;-69
2020/12/24 10:49:52;;;;;;;;;;;21.90;35.50;;;;;;491554;240;1148;-69
2020/12/24 10:51:54;;;;;;;;;;;21.80;35.70;;;;;;491537;240;990;-69
2020/12/24 10:53:55;;;;;;;;;;;21.70;35.80;;;;;;491467;240;1014;-69
2020/12/24 10:55:56;;;;;;;;;;;21.50;36.00;;;;;;491426;240;1016;-69
2020/12/24 10:57:58;;;;;;;;;;;21.40;36.10;;;;;;491534;240;2176;-69
2020/12/24 10:59:59;;;;;;;;;;;21.30;36.40;;;;;;491661;240;1087;-69
2020/12/24 11:02:00;;;;;;;;;;;21.10;36.50;;;;;;491532;240;987;-69
2020/12/24 11:04:03;;;;;;;;;;;21.10;36.80;;;;;;491553;240;1026;-69
2020/12/24 11:06:03;;;;;;;;;;;20.90;37.10;;;;;;491536;240;1936;-69
2020/12/24 11:08:04;;;;;;;;;;;20.70;37.40;;;;;;491528;240;1065;-69
2020/12/24 11:10:06;;;;;;;;;;;20.70;37.50;;;;;;491625;240;1024;-69
2020/12/24 11:12:07;;;;;;;;;;;20.50;37.60;;;;;;491522;240;1082;-69
2020/12/24 11:14:08;;;;;;;;;;;20.40;37.80;;;;;;491642;240;1080;-69
2020/12/24 11:16:09;;;;;;;;;;;20.40;37.90;;;;;;491688;240;1171;-69
2020/12/24 11:18:11;;;;;;;;;;;20.40;38.00;;;;;;491639;240;2125;-69
2020/12/24 11:20:12;;;;;;;;;;;20.40;38.00;;;;;;491576;240;1114;-69
2020/12/24 11:22:13;;;;;;;;;;;20.40;38.00;;;;;;491471;240;1092;-69
2020/12/24 11:24:14;;;;;;;;;;;20.30;38.00;;;;;;491682;240;974;-69
2020/12/24 11:26:16;;;;;;;;;;;20.40;38.10;;;;;;491619;240;977;-69
2020/12/24 11:28:17;;;;;;;;;;;20.30;38.10;;;;;;491641;240;1029;-69
2020/12/24 11:30:18;;;;;;;;;;;20.20;38.20;;;;;;491567;240;1055;-69
2020/12/24 11:32:20;;;;;;;;;;;20.20;38.20;;;;;;491620;240;1014;-69
2020/12/24 11:34:21;;;;;;;;;;;20.30;38.20;;;;;;491625;240;1035;-69
2020/12/24 11:36:22;;;;;;;;;;;20.20;38.20;;;;;;491596;240;1129;-69
2020/12/24 11:38:23;;;;;;;;;;;20.20;38.30;;;;;;491601;240;2108;-69
2020/12/24 11:40:25;;;;;;;;;;;20.10;38.30;;;;;;491548;240;1239;-69
2020/12/24 11:42:26;;;;;;;;;;;20.10;38.30;;;;;;491585;240;1059;-69
2020/12/24 11:44:27;;;;;;;;;;;20.00;38.40;;;;;;491593;240;1068;-68
2020/12/24 11:46:28;;;;;;;;;;;20.10;38.40;;;;;;491562;240;1000;-68
2020/12/24 11:48:30;;;;;;;;;;;20.00;38.20;;;;;;491625;240;1160;-68
2020/12/24 11:50:31;;;;;;;;;;;20.10;38.30;;;;;;491492;240;1223;-69
2020/12/24 11:52:32;;;;;;;;;;;20.00;38.20;;;;;;491510;240;1000;-68
2020/12/24 11:54:34;;;;;;;;;;;20.00;38.10;;;;;;491611;240;953;-68
2020/12/24 11:56:35;;;;;;;;;;;20.10;38.10;;;;;;491616;240;1049;-69
2020/12/24 11:58:36;;;;;;;;;;;20.10;38.00;;;;;;491608;240;2121;-69